»·PEaware :: N520MP KSLC-KSUN

N520MP :: KSLC-KSUN

FLIGHT INFORMATION

Flight Status: Arrived
Operator: Privately registered:
United States
More flights under this callsign
Pilot: Manuel P. (9695)
Aircraft: BOMBARDIER BD-100 CHALLENGER 300
(CL30)
More flights by this aircraft type
Origin: KSLC Salt Lake City Intl
United States
Destination: KSUN Friedman Meml
United States
More flights between these airports :: More routes between these airports
Route: +TWF4 TWF MENIN OREYE HLE
File this flight plan on PilotEdge
Remarks:
Altitude:
(Current/Filed)
40,000ft
Speed:
(Current/Filed)
400kts
Departed: 17-Nov-17 01:50 PM
Arrived: 17-Nov-17 02:32 PM
Distance/Time
Traveled:
192nm/0:41
Distance/Time
To Go:
Arrived

Flight Plot

Page will automatically refresh every two minutes.

Flight plan parsing failed; only flown route is shown


Map Options




Map Legend


Flown Route
Filed Route
Departure Airport
Arrival Airport
Navaid (VOR, NDB)
Fix

Horizontal Profiles

Position Reports

Time Latitude Longitude Heading Altitude Ground
Speed
17-Nov-17 13:35 40.775679 -111.959400 357 4233ft 0kts
17-Nov-17 13:36 40.775679 -111.959400 357 4233ft 0kts
17-Nov-17 13:37 40.775679 -111.959400 357 4233ft 0kts
17-Nov-17 13:38 40.775679 -111.959400 357 4233ft 0kts
17-Nov-17 13:39 40.775679 -111.959400 357 4233ft 0kts
17-Nov-17 13:40 40.775679 -111.959400 357 4233ft 0kts
17-Nov-17 13:41 40.775679 -111.959400 357 4233ft 0kts
17-Nov-17 13:42 40.775679 -111.959400 357 4233ft 0kts
17-Nov-17 13:43 40.775679 -111.959400 357 4233ft 0kts
17-Nov-17 13:44 40.775679 -111.959400 357 4233ft 0kts
17-Nov-17 13:45 40.775679 -111.959400 357 4233ft 0kts
17-Nov-17 13:46 40.775679 -111.959400 357 4233ft 0kts
17-Nov-17 13:47 40.775679 -111.959400 357 4233ft 0kts
17-Nov-17 13:48 40.775679 -111.959400 357 4233ft 0kts
17-Nov-17 13:49 40.776377 -111.960364 279 4233ft 6kts
17-Nov-17 13:50 40.778274 -111.960562 22 4233ft 12kts
17-Nov-17 13:51 40.783859 -111.960023 359 4234ft 24kts
17-Nov-17 13:52 40.789186 -111.960041 359 4233ft 24kts
17-Nov-17 13:53 40.796477 -111.960045 0 4233ft 16kts
17-Nov-17 13:54 40.799175 -111.960097 333 4234ft 8kts
17-Nov-17 13:55 40.796294 -111.962080 180 4233ft 64kts
17-Nov-17 13:56 40.755249 -111.980206 255 6291ft 220kts
17-Nov-17 13:57 40.752261 -112.068591 294 8617ft 283kts
17-Nov-17 13:58 40.783818 -112.165714 294 9999ft 309kts
17-Nov-17 13:59 40.820198 -112.274948 294 12169ft 347kts
17-Nov-17 14:00 40.890075 -112.346781 333 14944ft 341kts
17-Nov-17 14:01 40.982449 -112.390412 334 17155ft 361kts
17-Nov-17 14:02 41.077895 -112.434526 323 19355ft 363kts
17-Nov-17 14:03 41.160813 -112.502808 321 21294ft 372kts
17-Nov-17 14:04 41.242694 -112.583808 316 23044ft 371kts
17-Nov-17 14:05 41.315238 -112.674871 306 24775ft 364kts
17-Nov-17 14:06 41.383144 -112.773594 305 26597ft 364kts
17-Nov-17 14:07 41.450976 -112.875993 304 28519ft 376kts
17-Nov-17 14:08 41.518505 -112.978949 302 30795ft 368kts
17-Nov-17 14:09 41.584744 -113.080618 302 33063ft 362kts
17-Nov-17 14:10 41.650237 -113.181585 301 34117ft 365kts
17-Nov-17 14:11 41.719807 -113.289387 303 31922ft 398kts
17-Nov-17 14:12 41.790932 -113.399562 303 29098ft 389kts
17-Nov-17 14:13 41.859863 -113.506835 304 26257ft 376kts
17-Nov-17 14:14 41.926552 -113.611007 305 24045ft 365kts
17-Nov-17 14:15 41.989275 -113.709403 306 23383ft 361kts
17-Nov-17 14:16 42.054813 -113.812261 306 21393ft 358kts
17-Nov-17 14:17 42.116261 -113.909145 306 19440ft 342kts
17-Nov-17 14:18 42.175931 -114.003500 307 17461ft 330kts
17-Nov-17 14:19 42.245252 -114.075033 354 16038ft 334kts
17-Nov-17 14:20 42.340937 -114.068540 355 16045ft 362kts
17-Nov-17 14:21 42.444456 -114.061491 356 16030ft 369kts
17-Nov-17 14:22 42.543905 -114.054752 355 16037ft 357kts
17-Nov-17 14:23 42.643016 -114.048163 356 16041ft 364kts
17-Nov-17 14:24 42.744770 -114.041359 356 16037ft 368kts
17-Nov-17 14:25 42.844305 -114.034507 356 14578ft 347kts
17-Nov-17 14:26 42.939328 -114.028049 356 12872ft 342kts
17-Nov-17 14:27 43.030644 -114.022278 0 11141ft 315kts
17-Nov-17 14:28 43.111756 -114.016550 0 9973ft 274kts
17-Nov-17 14:29 43.180013 -114.014751 334 9838ft 221kts
17-Nov-17 14:30 43.232775 -114.066369 322 8601ft 249kts
17-Nov-17 14:31 43.285473 -114.121103 321 8570ft 220kts
17-Nov-17 14:32 43.328914 -114.167350 320 8574ft 183kts
17-Nov-17 14:33 43.374638 -114.201572 331 7957ft 170kts
17-Nov-17 14:34 43.415783 -114.225097 338 7115ft 154kts
17-Nov-17 14:35 43.453309 -114.246041 325 6369ft 144kts
17-Nov-17 14:36 43.485231 -114.277431 322 5617ft 138kts
17-Nov-17 14:37 43.503715 -114.295514 325 5326ft 15kts
17-Nov-17 14:38 43.502738 -114.296077 144 5325ft 10kts
17-Nov-17 14:39 43.499780 -114.293226 144 5326ft 13kts
17-Nov-17 14:40 43.498128 -114.292968 315 5326ft 2kts
17-Nov-17 14:41 43.498049 -114.293283 49 5326ft 0kts
17-Nov-17 14:42 43.498052 -114.293278 50 5326ft 0kts
17-Nov-17 14:43 43.498052 -114.293278 50 5326ft 0kts

Navigation Log

Ident Type
Flight plan parsing failed, navigation log unavailable